Time;durP1;ratioP1;P1;durP2;ratioP2;P2;SDS_P1;SDS_P2;PMS_P1;PMS_P2;Temp;Humidity;BMP_temperature;BMP_pressure;BME280_temperature;BME280_humidity;BME280_pressure;Samples;Min_cycle;Max_cycle;Signal;HPM_P1;HPM_P2
2022/11/20 00:01:28;;;;;;;19.58;15.50;;;;;;;-6.89;100.00;97978.97;15276954;19;20018;-61
2022/11/20 00:06:53;;;;;;;19.77;15.48;;;;;;;-6.90;100.00;97979.03;15277054;19;20014;-59
2022/11/20 00:12:17;;;;;;;22.83;16.80;;;;;;;-6.92;100.00;97958.16;15277733;19;20031;-61
2022/11/20 00:17:45;;;;;;;17.30;14.70;;;;;;;-6.99;100.00;97959.28;15278143;19;20482;-60
2022/11/20 00:23:09;;;;;;;17.08;13.77;;;;;;;-6.99;100.00;97956.69;15274445;19;20118;-61
2022/11/20 00:28:34;;;;;;;16.20;13.65;;;;;;;-7.04;100.00;97958.66;15274410;19;20014;-60
2022/11/20 00:34:01;;;;;;;16.73;13.60;;;;;;;-7.08;100.00;97941.34;15273204;19;20028;-60
2022/11/20 00:39:27;;;;;;;14.80;12.50;;;;;;;-7.12;100.00;97940.63;15275498;19;20466;-61
2022/11/20 00:44:51;;;;;;;15.15;12.68;;;;;;;-7.16;100.00;97950.38;15271235;19;20021;-61
2022/11/20 00:50:19;;;;;;;14.35;12.82;;;;;;;-7.19;100.00;97940.03;15276843;19;20022;-60
2022/11/20 00:55:50;;;;;;;14.00;12.50;;;;;;;-7.25;100.00;97948.16;15271074;19;20833;-59
2022/11/20 01:01:16;;;;;;;16.55;13.00;;;;;;;-7.30;100.00;97939.63;15269081;19;20308;-60
2022/11/20 01:06:46;;;;;;;15.80;13.70;;;;;;;-7.32;100.00;97942.31;15282748;19;20018;-57
2022/11/20 01:12:10;;;;;;;16.52;14.50;;;;;;;-7.33;100.00;97943.22;15287900;19;20482;-59
2022/11/20 01:17:35;;;;;;;18.98;14.80;;;;;;;-7.35;100.00;97944.19;15289871;19;20082;-61
2022/11/20 01:23:02;;;;;;;18.42;15.20;;;;;;;-7.37;100.00;97943.41;15287108;19;20508;-58
2022/11/20 01:28:27;;;;;;;18.88;16.08;;;;;;;-7.39;100.00;97942.59;15290050;19;20015;-60
2022/11/20 01:33:53;;;;;;;19.02;15.75;;;;;;;-7.41;100.00;97933.97;15279602;19;20011;-62
2022/11/20 01:39:24;;;;;;;19.83;16.67;;;;;;;-7.44;100.00;97941.03;15290193;19;20367;-61
2022/11/20 01:44:53;;;;;;;20.60;16.33;;;;;;;-7.46;100.00;97927.13;15280547;19;20018;-59
2022/11/20 01:50:24;;;;;;;21.83;17.30;;;;;;;-7.49;100.00;97931.66;15288096;19;20094;-59
2022/11/20 01:55:54;;;;;;;20.02;16.25;;;;;;;-7.50;100.00;97929.94;15284544;19;20020;-60
2022/11/20 02:01:21;;;;;;;22.27;17.17;;;;;;;-7.52;100.00;97937.88;15287349;19;20034;-59
2022/11/20 02:06:51;;;;;;;23.25;17.20;;;;;;;-7.55;100.00;97927.50;15285699;19;20471;-61
2022/11/20 02:17:57;;;;;;;23.02;17.05;;;;;;;-7.57;100.00;97925.88;15288774;19;20027;-61
2022/11/20 02:23:30;;;;;;;22.27;17.35;;;;;;;-7.61;100.00;97922.53;15289410;19;20007;-62
2022/11/20 02:29:01;;;;;;;21.83;16.17;;;;;;;-7.65;100.00;97916.59;15293720;19;20081;-58
2022/11/20 02:34:26;;;;;;;24.00;16.65;;;;;;;-7.67;100.00;97914.91;15278993;19;20028;-57
2022/11/20 02:39:52;;;;;;;19.55;16.25;;;;;;;-7.71;100.00;97915.97;15290216;19;20018;-60
2022/11/20 02:45:21;;;;;;;18.77;15.07;;;;;;;-7.74;100.00;97922.16;15285594;19;20343;-59
2022/11/20 02:50:46;;;;;;;18.15;15.05;;;;;;;-7.77;100.00;97915.28;15310492;19;20031;-61
2022/11/20 02:56:11;;;;;;;18.65;15.45;;;;;;;-7.80;100.00;97922.41;15282042;19;20467;-61
2022/11/20 03:01:38;;;;;;;21.02;16.55;;;;;;;-7.83;100.00;97904.22;15282215;19;20354;-60
2022/11/20 03:07:03;;;;;;;18.27;14.60;;;;;;;-7.90;100.00;97891.38;15276756;19;20489;-61
2022/11/20 03:12:27;;;;;;;20.00;15.48;;;;;;;-7.92;100.00;97880.13;15281306;19;20479;-60
2022/11/20 03:17:56;;;;;;;17.85;14.75;;;;;;;-7.93;100.00;97875.81;15286672;19;20014;-60
2022/11/20 03:23:21;;;;;;;17.65;15.23;;;;;;;-7.98;100.00;97874.28;15280938;19;20010;-58
2022/11/20 03:28:47;;;;;;;19.10;15.30;;;;;;;-8.01;100.00;97880.50;15281748;19;20085;-60
2022/11/20 03:34:14;;;;;;;18.43;15.47;;;;;;;-8.08;100.00;97881.63;15278273;19;20018;-60
2022/11/20 03:39:40;;;;;;;17.63;14.35;;;;;;;-8.11;100.00;97881.72;15277419;19;20010;-60
2022/11/20 03:45:06;;;;;;;17.60;14.35;;;;;;;-8.14;100.00;97884.47;15276426;19;21164;-60
2022/11/20 03:50:34;;;;;;;19.13;15.30;;;;;;;-8.18;100.00;97875.03;15282770;19;20007;-57
2022/11/20 03:55:59;;;;;;;20.40;15.93;;;;;;;-8.21;100.00;97887.31;15276826;19;20018;-60
2022/11/20 04:01:27;;;;;;;19.15;15.40;;;;;;;-8.23;100.00;97883.06;15281604;19;20038;-61
2022/11/20 04:06:54;;;;;;;18.40;14.75;;;;;;;-8.26;100.00;97863.13;15280014;19;20010;-57
2022/11/20 04:12:19;;;;;;;17.63;14.80;;;;;;;-8.29;100.00;97862.41;15271317;19;20013;-58
2022/11/20 04:17:45;;;;;;;18.52;15.32;;;;;;;-8.33;100.00;97866.88;15281538;19;20026;-59
2022/11/20 04:23:12;;;;;;;22.48;16.98;;;;;;;-8.38;100.00;97874.03;15277337;19;20705;-58
2022/11/20 04:28:40;;;;;;;21.53;16.70;;;;;;;-8.43;100.00;97866.38;15280009;19;20025;-60
2022/11/20 04:34:09;;;;;;;22.85;17.52;;;;;;;-8.46;100.00;97853.41;15275702;19;20054;-60
2022/11/20 04:39:36;;;;;;;21.07;16.60;;;;;;;-8.49;100.00;97856.16;15276119;19;20007;-57
2022/11/20 04:45:05;;;;;;;22.43;16.43;;;;;;;-8.52;100.00;97866.72;15267538;19;20006;-59
2022/11/20 04:50:30;;;;;;;22.27;16.92;;;;;;;-8.57;100.00;97858.22;15278406;19;20010;-58
2022/11/20 04:56:09;;;;;;;20.10;16.17;;;;;;;-8.59;100.00;97855.69;15274123;19;20007;-60
2022/11/20 05:01:35;;;;;;;19.57;15.67;;;;;;;-8.64;100.00;97841.94;15276271;19;20015;-57
2022/11/20 05:07:01;;;;;;;19.93;16.43;;;;;;;-8.67;100.00;97847.25;15277517;19;20031;-58
2022/11/20 05:12:30;;;;;;;19.13;14.93;;;;;;;-8.71;100.00;97846.53;15272010;19;20024;-60
2022/11/20 05:17:57;;;;;;;18.27;14.60;;;;;;;-8.77;100.00;97849.38;15272413;19;20082;-61
2022/11/20 05:23:21;;;;;;;18.77;15.67;;;;;;;-8.85;100.00;97852.25;15275262;19;20014;-60
2022/11/20 05:28:49;;;;;;;21.27;16.67;;;;;;;-8.99;100.00;97847.50;15277896;19;20010;-57
2022/11/20 05:34:14;;;;;;;19.23;15.50;;;;;;;-8.97;100.00;97852.69;15269192;19;20074;-60
2022/11/20 05:39:39;;;;;;;20.17;16.27;;;;;;;-9.00;100.00;97850.16;15275944;19;20014;-61
2022/11/20 05:45:09;;;;;;;20.97;15.10;;;;;;;-9.03;100.00;97851.13;15270409;19;20026;-58
2022/11/20 05:50:34;;;;;;;;;;;;;;;-9.06;100.00;97850.41;15268928;19;20015;-58
2022/11/20 05:56:00;;;;;;;24.67;17.63;;;;;;;-9.09;100.00;97853.09;15287687;19;19915;-60
2022/11/20 06:01:29;;;;;;;21.57;16.37;;;;;;;-9.11;100.00;97847.91;15288557;19;20014;-60
2022/11/20 06:06:54;;;;;;;21.87;16.60;;;;;;;-9.14;100.00;97848.06;15286241;19;20010;-61
2022/11/20 06:12:20;;;;;;;21.33;15.87;;;;;;;-9.14;100.00;97853.28;15284294;19;20541;-61
2022/11/20 06:17:47;;;;;;;28.93;21.87;;;;;;;-9.17;100.00;97853.38;15288023;19;20010;-61
2022/11/20 06:23:12;;;;;;;22.10;17.37;;;;;;;-9.19;100.00;97863.00;15280097;19;20869;-60
2022/11/20 06:28:38;;;;;;;19.23;15.07;;;;;;;-9.26;100.00;97848.47;15288430;19;20121;-56
2022/11/20 06:34:05;;;;;;;20.90;15.93;;;;;;;-9.26;100.00;97864.13;15281130;19;20723;-61
2022/11/20 06:39:24;;;;;;;21.17;16.07;;;;;;;-9.29;100.00;97860.72;15287366;19;20024;-60
2022/11/20 06:44:48;;;;;;;20.50;15.57;;;;;;;-9.30;100.00;97856.41;15280176;19;20016;-58
2022/11/20 06:50:17;;;;;;;19.37;15.13;;;;;;;-9.30;100.00;97863.38;15285245;19;20020;-59
2022/11/20 06:55:52;;;;;;;20.00;15.20;;;;;;;-9.31;100.00;97853.84;15275733;19;20341;-60
2022/11/20 07:01:18;;;;;;;21.60;16.37;;;;;;;-9.32;100.00;97859.97;15283402;19;20873;-60
2022/11/20 07:06:46;;;;;;;20.57;16.00;;;;;;;-9.33;100.00;97855.66;15278442;19;20018;-62
2022/11/20 07:12:11;;;;;;;21.63;16.37;;;;;;;-9.32;100.00;97862.56;15280371;19;20018;-61
2022/11/20 07:17:35;;;;;;;22.10;16.37;;;;;;;-9.30;100.00;97860.78;15276629;19;20041;-59
2022/11/20 07:23:03;;;;;;;20.33;15.90;;;;;;;-9.25;100.00;97858.00;15280335;19;20028;-58
2022/11/20 07:28:28;;;;;;;19.23;15.70;;;;;;;-9.24;100.00;97857.94;15276728;19;20024;-60
2022/11/20 07:33:54;;;;;;;20.37;16.40;;;;;;;-9.20;100.00;97848.25;15278987;19;20020;-60
2022/11/20 07:39:22;;;;;;;22.00;17.47;;;;;;;-9.07;100.00;97826.03;15282979;19;20035;-59
2022/11/20 07:44:47;;;;;;;20.80;17.13;;;;;;;-8.90;100.00;97840.25;15281171;19;20022;-62
2022/11/20 07:50:12;;;;;;;23.03;17.73;;;;;;;-8.80;100.00;97835.53;15283984;19;20499;-60
2022/11/20 07:55:41;;;;;;;22.00;17.43;;;;;;;-8.57;100.00;97842.56;15280693;19;20010;-61
2022/11/20 08:01:06;;;;;;;21.45;17.15;;;;;;;-8.43;100.00;97840.25;15286492;19;20881;-61
2022/11/20 08:06:30;;;;;;;21.30;16.97;;;;;;;-8.27;100.00;97831.81;15266939;19;21157;-61
2022/11/20 08:17:36;;;;;;;20.92;16.80;;;;;;;-7.89;100.00;97847.78;15277521;19;20018;-62
2022/11/20 08:23:21;;;;;;;18.35;15.82;;;;;;;-7.77;100.00;97844.66;15270768;19;20017;-62
2022/11/20 08:28:48;;;;;;;20.20;16.77;;;;;;;-7.54;100.00;97840.28;15277801;19;20067;-60
2022/11/20 08:34:14;;;;;;;17.40;15.52;;;;;;;-7.33;100.00;97850.75;15264134;19;20018;-58
2022/11/20 08:39:39;;;;;;;17.48;15.57;;;;;;;-7.09;100.00;97850.63;15273753;19;20037;-62
2022/11/20 08:45:06;;;;;;;16.13;14.45;;;;;;;-6.83;100.00;97853.00;15268808;19;20042;-59
2022/11/20 08:50:32;;;;;;;17.90;16.00;;;;;;;-6.52;100.00;97851.63;15272382;19;20025;-62
2022/11/20 08:56:06;;;;;;;17.63;15.77;;;;;;;-6.36;100.00;97851.81;15267872;19;20065;-62
2022/11/20 09:01:33;;;;;;;16.85;15.15;;;;;;;-6.21;100.00;97839.75;15272456;19;20026;-62
2022/11/20 09:06:58;;;;;;;17.42;15.63;;;;;;;-6.00;100.00;97838.84;15266476;19;20014;-63
2022/11/20 09:12:22;;;;;;;16.60;14.45;;;;;;;-5.87;100.00;97839.91;15270777;19;20023;-61
2022/11/20 09:17:50;;;;;;;16.50;14.80;;;;;;;-5.72;100.00;97846.22;15271979;19;20020;-62
2022/11/20 09:23:14;;;;;;;15.43;13.82;;;;;;;-5.54;100.00;97847.09;15267368;19;20413;-62
2022/11/20 09:28:39;;;;;;;16.48;14.02;;;;;;;-5.40;100.00;97838.53;15282050;19;20082;-63
2022/11/20 09:34:06;;;;;;;14.52;13.13;;;;;;;-5.22;100.00;97828.00;15281207;19;20074;-62
2022/11/20 09:39:31;;;;;;;15.80;14.20;;;;;;;-5.05;100.00;97833.28;15286918;19;20018;-63
2022/11/20 09:45:08;;;;;;;17.13;15.32;;;;;;;-4.82;100.00;97826.00;15280618;19;20018;-63
2022/11/20 09:50:41;;;;;;;16.48;14.85;;;;;;;-4.67;100.00;97827.81;15287629;19;20080;-63
2022/11/20 09:56:14;;;;;;;16.20;14.60;;;;;;;-4.53;100.00;97815.72;15282559;19;20016;-63
2022/11/20 10:01:43;;;;;;;15.70;13.95;;;;;;;-4.35;100.00;97814.72;15283391;19;20022;-63
2022/11/20 10:07:21;;;;;;;15.23;13.57;;;;;;;-4.18;100.00;97803.28;15276365;19;20018;-63
2022/11/20 10:13:05;;;;;;;14.82;13.32;;;;;;;-4.09;100.00;97804.56;15283192;19;20046;-63
2022/11/20 10:18:47;;;;;;;15.93;14.00;;;;;;;-3.94;100.00;97802.03;15286422;19;20011;-61
2022/11/20 10:24:41;;;;;;;17.75;15.88;;;;;;;-3.79;100.00;97801.13;15279642;19;20031;-63
2022/11/20 10:30:12;;;;;;;18.25;15.98;;;;;;;-3.77;100.00;97801.91;15259661;19;20013;-62
2022/11/20 10:35:42;;;;;;;17.10;15.30;;;;;;;-3.62;100.00;97796.72;15284940;19;20023;-61
2022/11/20 10:46:54;;;;;;;18.20;16.30;;;;;;;-3.42;100.00;97788.50;15279921;19;20029;-62
2022/11/20 10:52:28;;;;;;;15.80;14.20;;;;;;;-3.33;100.00;97791.53;15285021;19;20086;-61
2022/11/20 10:58:06;;;;;;;15.98;14.27;;;;;;;-3.23;100.00;97784.78;15278375;19;20017;-63
2022/11/20 11:03:35;;;;;;;14.18;12.75;;;;;;;-3.12;100.00;97778.88;15278324;19;20082;-63
2022/11/20 11:09:03;;;;;;;15.02;13.27;;;;;;;-2.98;100.00;97780.69;15279401;19;20028;-62
2022/11/20 11:14:31;;;;;;;14.25;12.73;;;;;;;-2.91;100.00;97776.75;15272837;19;20033;-62
2022/11/20 11:20:03;;;;;;;15.93;14.32;;;;;;;-2.87;100.00;97783.53;15284483;19;20020;-63
2022/11/20 11:25:36;;;;;;;16.80;15.10;;;;;;;-2.77;100.00;97777.72;15276475;19;20313;-62
2022/11/20 11:31:03;;;;;;;15.55;14.05;;;;;;;-2.71;100.00;97774.69;15283015;19;20024;-63
2022/11/20 11:36:32;;;;;;;15.40;13.90;;;;;;;-2.61;100.00;97762.63;15277683;19;20017;-61
2022/11/20 11:41:57;;;;;;;15.30;13.50;;;;;;;-2.61;100.00;97749.44;15283385;19;20018;-63
2022/11/20 11:47:33;;;;;;;15.40;13.80;;;;;;;-2.61;100.00;97752.06;15273350;19;20542;-63
2022/11/20 11:53:05;;;;;;;17.40;15.63;;;;;;;-2.52;100.00;97755.94;15273209;19;20435;-62
2022/11/20 11:58:51;;;;;;;15.85;14.15;;;;;;;-2.56;100.00;97747.38;15278636;19;20018;-63
2022/11/20 12:04:26;;;;;;;17.00;15.20;;;;;;;-2.51;100.00;97741.81;15275920;19;20014;-63
2022/11/20 12:09:58;;;;;;;21.52;19.27;;;;;;;-2.48;100.00;97737.19;15278593;19;20344;-59
2022/11/20 12:15:31;;;;;;;19.95;17.88;;;;;;;-2.51;100.00;97737.38;15279459;19;20485;-62
2022/11/20 12:21:16;;;;;;;16.63;14.82;;;;;;;-2.53;100.00;97720.78;15279056;19;20018;-63
2022/11/20 12:26:56;;;;;;;16.80;13.77;;;;;;;-2.52;100.00;97719.84;15276192;19;20014;-62
2022/11/20 12:33:09;;;;;;;17.83;14.27;;;;;;;-2.40;100.00;97722.66;15278615;19;20081;-63
2022/11/20 12:39:01;;;;;;;15.60;13.23;;;;;;;-2.32;100.00;97725.69;15274562;19;20014;-61
2022/11/20 12:50:24;;;;;;;16.35;14.07;;;;;;;-2.22;100.00;97741.75;15276477;19;20074;-62
2022/11/20 12:56:33;;;;;;;16.95;14.63;;;;;;;-2.21;100.00;97746.09;15274345;19;20349;-63
2022/11/20 13:02:03;;;;;;;18.50;15.70;;;;;;;-2.20;100.00;97745.13;15281630;19;20019;-61
2022/11/20 13:07:30;;;;;;;20.25;16.33;;;;;;;-2.18;100.00;97759.09;15289972;19;20448;-64
2022/11/20 13:13:03;;;;;;;20.75;16.35;;;;;;;-2.15;100.00;97764.19;15289816;19;20035;-64
2022/11/20 13:18:28;;;;;;;21.13;17.35;;;;;;;-2.09;100.00;97758.50;15290456;19;20014;-64
2022/11/20 13:23:53;;;;;;;21.90;16.75;;;;;;;-2.06;100.00;97758.31;15282570;19;20024;-63
2022/11/20 13:29:26;;;;;;;21.52;17.48;;;;;;;-2.00;100.00;97766.78;15291229;19;20070;-62
2022/11/20 13:34:57;;;;;;;19.55;16.60;;;;;;;-1.94;100.00;97767.22;15283244;19;20082;-62
2022/11/20 13:40:32;;;;;;;20.33;17.48;;;;;;;-1.92;100.00;97752.13;15288500;19;20013;-63
2022/11/20 13:46:01;;;;;;;18.30;16.05;;;;;;;-1.90;100.00;97755.53;15285220;19;20031;-63
2022/11/20 13:51:41;;;;;;;19.63;16.17;;;;;;;-1.82;100.00;97751.56;15289320;19;20074;-63
2022/11/20 13:57:27;;;;;;;17.35;15.20;;;;;;;-1.78;100.00;97745.09;15280193;19;20007;-63
2022/11/20 14:03:04;;;;;;;19.50;15.30;;;;;;;-1.78;100.00;97745.97;15285950;19;20022;-63
2022/11/20 14:08:37;;;;;;;17.42;15.07;;;;;;;-1.69;100.00;97744.50;15285471;19;20014;-64
2022/11/20 14:14:05;;;;;;;15.45;13.82;;;;;;;-1.66;100.00;97740.81;15284301;19;20021;-64
2022/11/20 14:19:39;;;;;;;17.48;15.50;;;;;;;-1.61;100.00;97747.50;15295454;19;20023;-63
2022/11/20 14:25:09;;;;;;;17.42;14.70;;;;;;;-1.52;100.00;97726.69;15303132;19;20014;-64
2022/11/20 14:30:37;;;;;;;14.95;12.52;;;;;;;-1.50;100.00;97733.56;15286536;19;20020;-64
2022/11/20 14:36:04;;;;;;;14.77;13.00;;;;;;;-1.50;100.00;97730.09;15282756;19;20501;-63
2022/11/20 14:41:32;;;;;;;15.10;13.45;;;;;;;-1.52;100.00;97710.84;15279727;19;20375;-64
2022/11/20 14:46:59;;;;;;;16.30;13.82;;;;;;;-1.61;100.00;97712.28;15278010;19;20499;-63
2022/11/20 14:52:30;;;;;;;18.58;14.27;;;;;;;-1.66;100.00;97701.22;15277742;19;20038;-62
2022/11/20 14:57:58;;;;;;;19.90;15.80;;;;;;;-1.74;100.00;97694.63;15270449;19;20693;-62
2022/11/20 15:03:25;;;;;;;19.65;15.93;;;;;;;-1.78;100.00;97692.28;15278889;19;20419;-63
2022/11/20 15:08:57;;;;;;;20.58;16.35;;;;;;;-1.83;100.00;97699.69;15277397;19;20010;-63
2022/11/20 15:14:21;;;;;;;21.80;16.70;;;;;;;-1.88;100.00;97707.88;15278873;19;20010;-61
2022/11/20 15:19:47;;;;;;;21.65;16.13;;;;;;;-1.92;100.00;97701.97;15282603;19;20036;-63
2022/11/20 15:25:20;;;;;;;22.50;17.38;;;;;;;-1.94;100.00;97709.13;15278391;19;20099;-63
2022/11/20 15:30:45;;;;;;;24.50;18.13;;;;;;;-1.94;100.00;97692.47;15277141;19;20015;-64
2022/11/20 15:36:09;;;;;;;23.38;18.38;;;;;;;-1.99;100.00;97690.13;15277563;19;20018;-63
2022/11/20 15:41:38;;;;;;;20.13;17.30;;;;;;;-2.08;100.00;97698.66;15282731;19;20046;-64
2022/11/20 15:47:02;;;;;;;20.98;17.55;;;;;;;-2.18;100.00;97688.72;15279021;19;20014;-62
2022/11/20 15:52:27;;;;;;;21.77;18.33;;;;;;;-2.29;100.00;97680.59;15278324;19;20740;-61
2022/11/20 15:58:01;;;;;;;23.15;18.95;;;;;;;-2.41;100.00;97673.50;15276226;19;20020;-64
2022/11/20 16:03:27;;;;;;;23.13;18.92;;;;;;;-2.55;100.00;97664.69;15268810;19;20007;-63
2022/11/20 16:08:51;;;;;;;24.45;19.23;;;;;;;-2.64;100.00;97662.59;15273758;19;20025;-64
2022/11/20 16:19:55;;;;;;;24.73;20.08;;;;;;;-2.90;100.00;97661.63;15275757;19;20363;-63
2022/11/20 16:25:20;;;;;;;25.85;20.08;;;;;;;-3.00;100.00;97645.56;15276881;19;20054;-64
2022/11/20 16:30:48;;;;;;;23.60;18.83;;;;;;;-3.12;100.00;97645.34;15277161;19;20018;-64
2022/11/20 16:36:16;;;;;;;27.15;20.23;;;;;;;-3.18;100.00;97643.09;15269305;19;20010;-62
2022/11/20 16:41:43;;;;;;;26.17;19.77;;;;;;;-3.20;100.00;97638.88;15274339;19;20090;-63
2022/11/20 16:47:10;;;;;;;25.55;19.23;;;;;;;-3.15;100.00;97642.91;15273195;19;20007;-60
2022/11/20 16:52:36;;;;;;;20.60;16.08;;;;;;;-3.16;100.00;97653.53;15273872;19;20011;-63
2022/11/20 16:58:00;;;;;;;26.48;19.50;;;;;;;-3.24;100.00;97648.75;15274232;19;20019;-63
2022/11/20 17:03:28;;;;;;;25.80;20.77;;;;;;;-3.28;100.00;97636.72;15268284;19;20021;-62
2022/11/20 17:08:53;;;;;;;25.73;21.38;;;;;;;-3.30;100.00;97638.59;15262773;19;20010;-62
2022/11/20 17:14:20;;;;;;;24.77;19.75;;;;;;;-3.33;100.00;97641.41;15268919;19;20034;-64
2022/11/20 17:19:47;;;;;;;24.65;19.80;;;;;;;-3.32;100.00;97645.72;15273772;19;20042;-62
2022/11/20 17:25:13;;;;;;;28.73;22.65;;;;;;;-3.31;100.00;97647.41;15271536;19;20042;-62
2022/11/20 17:30:38;;;;;;;27.75;22.80;;;;;;;-3.26;100.00;97642.72;15269216;19;20011;-62
2022/11/20 17:36:05;;;;;;;30.55;23.55;;;;;;;-3.20;100.00;97631.81;15272713;19;20006;-63
2022/11/20 17:41:31;;;;;;;28.88;21.85;;;;;;;-3.14;100.00;97635.84;15266301;19;20010;-62
2022/11/20 17:46:55;;;;;;;26.35;20.23;;;;;;;-3.08;100.00;97626.72;15268200;19;20010;-63
2022/11/20 17:52:24;;;;;;;25.40;19.92;;;;;;;-3.02;100.00;97621.91;15284142;19;20018;-63
2022/11/20 17:57:57;;;;;;;22.63;19.13;;;;;;;-2.96;100.00;97587.28;15283980;19;20038;-63
2022/11/20 18:03:22;;;;;;;20.27;17.00;;;;;;;-2.91;100.00;97581.72;15282174;19;20015;-61
2022/11/20 18:08:50;;;;;;;19.40;16.48;;;;;;;-2.85;100.00;97578.69;15282463;19;20332;-62
2022/11/20 18:19:55;;;;;;;18.10;15.52;;;;;;;-2.74;100.00;97583.28;15289691;19;20022;-62
2022/11/20 18:25:43;;;;;;;18.48;15.20;;;;;;;-2.69;100.00;97575.91;15285139;19;20006;-63
2022/11/20 18:31:12;;;;;;;17.88;14.45;;;;;;;-2.64;100.00;97588.78;15285066;19;20016;-62
2022/11/20 18:36:37;;;;;;;16.10;13.88;;;;;;;-2.60;100.00;97577.09;15284631;19;20014;-61
2022/11/20 18:47:42;;;;;;;15.07;13.48;;;;;;;-2.51;100.00;97544.00;15277244;19;20022;-62
2022/11/20 18:53:08;;;;;;;16.35;13.98;;;;;;;-2.51;100.00;97526.38;15279776;19;20003;-60
2022/11/20 18:58:43;;;;;;;16.70;14.40;;;;;;;-2.46;100.00;97512.06;15279249;19;20015;-62
2022/11/20 19:04:08;;;;;;;22.98;20.50;;;;;;;-2.41;100.00;97507.34;15277765;19;20017;-63
2022/11/20 19:09:34;;;;;;;15.55;13.85;;;;;;;-2.37;100.00;97500.88;15281770;19;20691;-63
2022/11/20 19:15:03;;;;;;;17.10;14.40;;;;;;;-2.31;100.00;97482.03;15271800;19;20022;-61
2022/11/20 19:20:29;;;;;;;15.68;13.38;;;;;;;-2.26;100.00;97479.91;15281452;19;20006;-57
2022/11/20 19:25:54;;;;;;;17.40;14.35;;;;;;;-2.22;100.00;97462.91;15278923;19;20022;-58
2022/11/20 19:31:25;;;;;;;16.15;14.35;;;;;;;-2.16;100.00;97472.22;15281370;19;20046;-62
2022/11/20 19:36:51;;;;;;;15.40;13.48;;;;;;;-2.12;100.00;97457.00;15282438;19;20017;-62
2022/11/20 19:42:15;;;;;;;13.80;12.30;;;;;;;-2.06;100.00;97456.59;15278087;19;20014;-61
2022/11/20 19:47:42;;;;;;;15.02;13.38;;;;;;;-2.00;100.00;97440.31;15277940;19;20026;-60
2022/11/20 19:53:24;;;;;;;16.40;14.57;;;;;;;-1.96;100.00;97414.56;15273592;19;20017;-59
2022/11/20 19:58:49;;;;;;;15.75;14.05;;;;;;;-1.93;100.00;97412.53;15273614;19;20006;-59
2022/11/20 20:04:16;;;;;;;16.02;14.23;;;;;;;-1.89;100.00;97414.03;15272423;19;20024;-61
2022/11/20 20:09:41;;;;;;;15.88;14.10;;;;;;;-1.82;100.00;97421.53;15275765;19;20074;-61
2022/11/20 20:15:05;;;;;;;16.80;14.65;;;;;;;-1.79;100.00;97413.38;15276054;19;20022;-61
2022/11/20 20:20:32;;;;;;;18.33;15.23;;;;;;;-1.71;100.00;97413.69;15270646;19;20018;-61
2022/11/20 20:25:57;;;;;;;20.95;17.33;;;;;;;-1.68;100.00;97407.34;15272955;19;20014;-62
2022/11/20 20:31:24;;;;;;;24.38;19.73;;;;;;;-1.69;100.00;97403.84;15252185;19;20451;-58
2022/11/20 20:36:51;;;;;;;25.55;20.27;;;;;;;-1.67;100.00;97393.19;15274157;19;20010;-60
2022/11/20 20:42:16;;;;;;;28.67;22.05;;;;;;;-1.67;100.00;97380.81;15273472;19;20026;-60
2022/11/20 20:47:42;;;;;;;30.55;22.00;;;;;;;-1.64;100.00;97367.38;15277227;19;20021;-60
2022/11/20 20:53:09;;;;;;;30.17;22.20;;;;;;;-1.60;100.00;97366.22;15270684;19;20368;-56
2022/11/20 20:58:41;;;;;;;28.40;21.38;;;;;;;-1.53;100.00;97368.41;15275160;19;20066;-57
2022/11/20 21:04:06;;;;;;;29.75;23.85;;;;;;;-1.50;100.00;97354.97;15274983;19;20020;-60
2022/11/20 21:09:34;;;;;;;30.30;24.80;;;;;;;-1.46;100.00;97343.22;15277529;19;20021;-63
2022/11/20 21:15:00;;;;;;;27.55;21.17;;;;;;;-1.39;100.00;97341.84;15273929;19;20328;-62
2022/11/20 21:26:07;;;;;;;28.10;21.33;;;;;;;-1.29;100.00;97319.06;15307957;19;20028;-62
2022/11/20 21:31:33;;;;;;;37.33;31.58;;;;;;;-1.25;100.00;97315.22;15291761;19;20398;-61
2022/11/20 21:36:58;;;;;;;27.38;21.52;;;;;;;-1.18;100.00;97299.75;15292083;19;20010;-62
2022/11/20 21:42:25;;;;;;;25.85;20.08;;;;;;;-1.13;100.00;97288.84;15290072;19;20070;-63
2022/11/20 21:47:51;;;;;;;26.17;19.58;;;;;;;-1.08;100.00;97294.59;15290079;19;20018;-61
2022/11/20 21:53:15;;;;;;;23.90;18.20;;;;;;;-1.03;100.00;97289.81;15286637;19;20015;-59
2022/11/20 21:58:51;;;;;;;25.70;19.35;;;;;;;-0.99;100.00;97272.75;15279747;19;20029;-61
2022/11/20 22:04:18;;;;;;;22.17;17.98;;;;;;;-0.94;100.00;97253.88;15285427;19;20028;-62
2022/11/20 22:09:44;;;;;;;22.90;17.67;;;;;;;-0.90;100.00;97243.94;15288567;19;20470;-62
2022/11/20 22:15:12;;;;;;;21.23;16.83;;;;;;;-0.86;100.00;97226.88;15290856;19;20006;-60
2022/11/20 22:20:58;;;;;;;20.58;15.93;;;;;;;-0.82;100.00;97223.84;15288406;19;20041;-63
2022/11/20 22:26:25;;;;;;;20.98;15.82;;;;;;;-0.75;100.00;97208.34;15284575;19;20547;-62
2022/11/20 22:31:59;;;;;;;20.73;15.43;;;;;;;-0.68;100.00;97201.66;15281963;19;20025;-63
2022/11/20 22:37:24;;;;;;;18.10;14.27;;;;;;;-0.54;100.00;97184.66;15285680;19;20546;-61
2022/11/20 22:42:52;;;;;;;23.85;18.33;;;;;;;-0.48;100.00;97176.25;15286206;19;20467;-62
2022/11/20 22:48:19;;;;;;;21.50;17.70;;;;;;;-0.34;100.00;97177.78;15286913;19;20014;-61
2022/11/20 22:53:45;;;;;;;16.63;13.35;;;;;;;-0.25;100.00;97167.41;15280905;19;20042;-62
2022/11/20 22:59:20;;;;;;;14.55;11.88;;;;;;;-0.22;100.00;97153.94;15284115;19;20018;-62
2022/11/20 23:04:49;;;;;;;15.05;11.93;;;;;;;-0.15;100.00;97147.16;15274905;19;20053;-63
2022/11/20 23:10:14;;;;;;;14.75;11.30;;;;;;;-0.13;100.00;97132.00;15284681;19;20049;-62
2022/11/20 23:15:39;;;;;;;13.25;11.07;;;;;;;-0.03;100.00;97132.94;15285047;19;20109;-62
2022/11/20 23:21:12;;;;;;;11.32;9.80;;;;;;;0.07;100.00;97124.22;15283749;19;20011;-62
2022/11/20 23:26:40;;;;;;;10.52;8.35;;;;;;;0.12;100.00;97114.91;15282213;19;20387;-62
2022/11/20 23:32:04;;;;;;;11.88;8.85;;;;;;;0.18;100.00;97118.88;15279796;19;20078;-63
2022/11/20 23:37:31;;;;;;;9.48;7.50;;;;;;;0.24;100.00;97110.41;15277342;19;20011;-64
2022/11/20 23:48:36;;;;;;;9.07;7.10;;;;;;;0.39;100.00;97094.22;15285041;19;20045;-63
2022/11/20 23:54:03;;;;;;;7.93;6.35;;;;;;;0.43;100.00;97080.56;15277921;19;20089;-64
2022/11/20 23:59:28;;;;;;;7.07;6.13;;;;;;;0.47;100.00;97083.78;15282091;19;20018;-63
